createdAt,value
2022-07-25T00:01:40.357Z,3.3
2022-07-25T00:03:43.444Z,3.4
2022-07-25T00:05:46.630Z,4
2022-07-25T00:07:51.147Z,3.5
2022-07-25T00:09:56.019Z,4.3
2022-07-25T00:11:59.223Z,3.5
2022-07-25T00:14:02.645Z,3.3
2022-07-25T00:16:05.661Z,4.7
2022-07-25T00:18:08.759Z,3.3
2022-07-25T00:24:21.383Z,4.3
2022-07-25T00:26:24.619Z,4.2
2022-07-25T00:28:27.803Z,4.1
2022-07-25T00:30:30.981Z,4.5
2022-07-25T00:32:34.187Z,3.9
2022-07-25T00:34:37.374Z,3.8
2022-07-25T00:36:40.589Z,4.5
2022-07-25T00:38:46.790Z,5.8
2022-07-25T00:40:54.210Z,5
2022-07-25T00:42:53.180Z,4.9
2022-07-25T00:46:59.595Z,5.4
2022-07-25T00:49:02.799Z,4.7
2022-07-25T00:51:05.915Z,5.3
2022-07-25T00:53:12.156Z,5.3
2022-07-25T00:55:15.352Z,4.8
2022-07-25T00:57:18.543Z,5.3
2022-07-25T01:00:24.863Z,5.3
2022-07-25T01:02:28.131Z,5.6
2022-07-25T01:04:31.219Z,5.7
2022-07-25T01:06:37.441Z,5.8
2022-07-25T01:25:09.588Z,6
2022-07-25T01:27:17.481Z,4.8
2022-07-25T01:29:15.980Z,6.1
2022-07-25T01:31:19.270Z,4.8
2022-07-25T01:35:28.604Z,5.8
2022-07-25T01:39:35.018Z,6.2
2022-07-25T01:41:38.202Z,6.3
2022-07-25T01:43:41.405Z,5.5
2022-07-25T01:45:46.240Z,5.4
2022-07-25T01:47:49.302Z,6.4
2022-07-25T01:49:55.513Z,5.9
2022-07-25T01:51:58.729Z,6.1
2022-07-25T01:54:02.074Z,7.2
2022-07-25T01:55:05.048Z,6.4
2022-07-25T01:57:08.227Z,5.8
2022-07-25T01:59:11.421Z,6.3
2022-07-25T02:01:14.683Z,6.3
2022-07-25T02:03:20.827Z,6
2022-07-25T02:07:27.206Z,5.2
2022-07-25T02:09:30.399Z,7
2022-07-25T02:11:33.618Z,6.6
2022-07-25T02:13:36.795Z,6
2022-07-25T02:15:39.979Z,6.2
2022-07-25T02:21:52.622Z,6.5
2022-07-25T02:23:55.783Z,7.2
2022-07-25T02:25:58.979Z,7
2022-07-25T02:28:02.198Z,6.4
2022-07-25T02:30:05.410Z,7.4
2022-07-25T02:32:11.625Z,7.1
2022-07-25T02:34:14.857Z,7
2022-07-25T02:44:31.186Z,6.9
2022-07-25T02:46:37.417Z,7.8
2022-07-25T02:48:40.609Z,6.8
2022-07-25T02:50:43.744Z,6.7
2022-07-25T02:53:01.523Z,7.4
2022-07-25T02:55:09.106Z,7.9
2022-07-25T02:57:07.976Z,7.7
2022-07-25T02:59:14.200Z,7.9
2022-07-25T03:01:17.583Z,7.3
2022-07-25T03:03:20.723Z,7.2
2022-07-25T03:05:23.917Z,8.5
2022-07-25T03:07:27.278Z,9.1
2022-07-25T03:09:30.464Z,7.5
2022-07-25T03:11:33.757Z,8.3
2022-07-25T03:13:40.033Z,9.6
2022-07-25T03:15:43.211Z,7
2022-07-25T03:17:46.440Z,7.8
2022-07-25T03:19:49.671Z,8.7
2022-07-25T03:23:56.115Z,8.5
2022-07-25T03:25:59.427Z,8.4
2022-07-25T03:32:12.360Z,8.4
2022-07-25T03:34:15.442Z,8
2022-07-25T03:40:25.229Z,8.1
2022-07-25T03:44:34.811Z,7.6
2022-07-25T03:49:44.397Z,8.1
2022-07-25T03:51:47.608Z,7.9
2022-07-25T03:55:57.120Z,7.2
2022-07-25T03:58:00.437Z,8.4
2022-07-25T04:00:03.728Z,8.4
2022-07-25T04:02:06.949Z,7.5
2022-07-25T04:04:10.418Z,7.6
2022-07-25T04:06:19.109Z,7.4
2022-07-25T04:08:16.599Z,7.5
2022-07-25T04:10:22.986Z,8.8
2022-07-25T04:12:26.298Z,8.2
2022-07-25T04:14:29.608Z,7.9
2022-07-25T04:16:32.985Z,8.7
2022-07-25T04:18:36.199Z,8.5
2022-07-25T04:20:39.421Z,8.5
2022-07-25T04:22:46.770Z,7.5
2022-07-25T04:24:49.003Z,8.6
2022-07-25T04:26:52.215Z,9.6
2022-07-25T04:28:55.439Z,9.7
2022-07-25T04:30:58.791Z,8
2022-07-25T04:33:02.127Z,8.7
2022-07-25T04:35:05.449Z,9.5
2022-07-25T04:37:08.674Z,8.9
2022-07-25T04:39:15.048Z,9
2022-07-25T04:41:18.263Z,9.4
2022-07-25T04:43:21.741Z,9.2
2022-07-25T04:44:24.632Z,9.4
2022-07-25T04:46:27.867Z,8.2
2022-07-25T04:48:31.272Z,9.2
2022-07-25T04:50:34.439Z,8.8
2022-07-25T04:52:40.731Z,8.4
2022-07-25T04:54:43.926Z,8.3
2022-07-25T04:56:47.256Z,8.8
2022-07-25T04:58:50.492Z,8.4
2022-07-25T05:00:53.806Z,7.9
2022-07-25T05:07:06.430Z,7.9
2022-07-25T05:09:09.633Z,6
2022-07-25T05:11:12.850Z,6.9
2022-07-25T05:13:16.091Z,6
2022-07-25T05:15:19.475Z,6
2022-07-25T05:17:22.522Z,6.2
2022-07-25T05:19:25.750Z,6.2
2022-07-25T05:21:31.991Z,5.9
2022-07-25T05:23:35.223Z,5.6
2022-07-25T05:25:38.414Z,6.8
2022-07-25T05:27:41.644Z,5.9
2022-07-25T05:29:44.832Z,6
2022-07-25T05:31:48.137Z,5.4
2022-07-25T05:33:51.274Z,4.9
2022-07-25T05:35:57.529Z,5.5
2022-07-25T05:38:00.808Z,4.7
2022-07-25T05:40:03.887Z,4.4
2022-07-25T05:47:16.525Z,5.1
2022-07-25T05:49:22.744Z,4.6
2022-07-25T05:51:27.668Z,5.2
2022-07-25T05:53:29.105Z,4.9
2022-07-25T05:55:32.279Z,4.2
2022-07-25T05:57:35.437Z,4.5
2022-07-25T05:59:38.579Z,4.3
2022-07-25T06:01:41.781Z,4.9
2022-07-25T06:03:47.916Z,4.1
2022-07-25T06:05:51.058Z,4.3
2022-07-25T06:07:54.209Z,4.6
2022-07-25T06:09:57.321Z,4.9
2022-07-25T06:12:01.513Z,5.4
2022-07-25T06:20:16.085Z,4.9
2022-07-25T06:22:19.153Z,5.9
2022-07-25T06:24:22.264Z,5.3
2022-07-25T06:26:25.413Z,5.2
2022-07-25T06:30:31.637Z,5.6
2022-07-25T06:32:37.758Z,5.2
2022-07-25T06:34:40.829Z,5.9
2022-07-25T06:41:16.292Z,6.3
2022-07-25T06:43:19.368Z,5.8
2022-07-25T06:45:25.527Z,5.8
2022-07-25T06:49:31.609Z,5.6
2022-07-25T06:51:34.657Z,5.7
2022-07-25T06:53:37.675Z,6.8
2022-07-25T06:55:40.727Z,6.3
2022-07-25T06:57:43.783Z,7.2
2022-07-25T06:59:49.861Z,7
2022-07-25T07:01:52.912Z,6.4
2022-07-25T07:03:56.093Z,6.8
2022-07-25T07:05:58.999Z,7.6
2022-07-25T07:08:02.023Z,7.3
2022-07-25T07:12:08.117Z,6.8
2022-07-25T07:14:14.381Z,6.5
2022-07-25T07:18:20.302Z,5.9
2022-07-25T07:20:23.324Z,6.1
2022-07-25T07:22:26.397Z,6.6
2022-07-25T07:24:29.412Z,6.5
2022-07-25T07:26:32.480Z,5.7
2022-07-25T07:31:14.585Z,5.3
2022-07-25T07:32:44.831Z,5.3
2022-07-25T07:33:47.700Z,4.8
2022-07-25T07:35:50.711Z,5.8
2022-07-25T07:37:53.748Z,4.2
2022-07-25T07:42:04.361Z,4.1
2022-07-25T07:44:07.377Z,4.2
2022-07-25T07:46:10.466Z,3.6
2022-07-25T07:48:13.406Z,4.1
2022-07-25T07:52:19.441Z,3.9
2022-07-25T07:54:22.452Z,3.9
2022-07-25T07:56:28.507Z,2.6
2022-07-25T08:02:37.607Z,2.7
2022-07-25T08:04:40.530Z,1.8
2022-07-25T08:06:43.526Z,2.6
2022-07-25T08:08:46.529Z,2.3
2022-07-25T08:12:55.585Z,2
2022-07-25T08:21:07.585Z,2.4
2022-07-25T08:30:25.721Z,1.6
2022-07-25T08:34:31.733Z,1.8
2022-07-25T08:36:35.073Z,1.7
2022-07-25T08:38:40.825Z,1.7
2022-07-25T08:40:43.827Z,2
2022-07-25T08:42:46.865Z,1.9
2022-07-25T08:44:49.871Z,1.3
2022-07-25T08:46:52.964Z,1.9
2022-07-25T08:48:55.990Z,1.7
2022-07-25T08:50:58.949Z,2
2022-07-25T08:53:31.401Z,3.2
2022-07-25T08:55:08.014Z,2
2022-07-25T08:57:11.031Z,2
2022-07-25T08:59:14.016Z,2
2022-07-25T09:01:17.161Z,1.4
2022-07-25T09:03:20.133Z,1.2
2022-07-25T09:05:23.050Z,1.1
2022-07-25T09:07:29.231Z,1.3
2022-07-25T09:11:35.090Z,0.9
2022-07-25T09:13:38.093Z,0.9
2022-07-25T09:15:41.117Z,0.8
2022-07-25T09:17:44.083Z,0.9
2022-07-25T09:19:47.073Z,0.6
2022-07-25T09:21:53.125Z,0.7
2022-07-25T09:23:56.086Z,0.8
2022-07-25T09:25:59.107Z,0.9
2022-07-25T09:27:02.092Z,1.1
2022-07-25T09:29:05.085Z,0.8
2022-07-25T09:31:08.079Z,0.7
2022-07-25T09:33:10.997Z,0.7
2022-07-25T09:35:17.047Z,0.9
2022-07-25T09:37:20.185Z,0.8
2022-07-25T09:39:22.999Z,0.7
2022-07-25T09:41:26.047Z,0.7
2022-07-25T09:43:28.979Z,1
2022-07-25T09:45:32.049Z,0.7
2022-07-25T09:47:34.969Z,0.6
2022-07-25T09:49:41.015Z,0.7
2022-07-25T09:51:44.018Z,1
2022-07-25T09:53:47.002Z,1.2
2022-07-25T09:55:50.007Z,0.9
2022-07-25T09:57:52.984Z,0.9
2022-07-25T09:59:56.001Z,0.6
2022-07-25T10:01:59.076Z,0.9
2022-07-25T10:04:05.332Z,0.7
2022-07-25T10:06:08.185Z,0.7
2022-07-25T10:08:10.954Z,0.9
2022-07-25T10:10:13.937Z,0.5
2022-07-25T10:12:16.881Z,1.4
2022-07-25T10:14:19.823Z,0.8
2022-07-25T10:16:22.899Z,1
2022-07-25T10:18:28.782Z,0.8
2022-07-25T10:20:31.737Z,0.8
2022-07-25T10:24:58.318Z,1
2022-07-25T10:27:01.269Z,0.9
2022-07-25T10:29:04.205Z,1.1
2022-07-25T10:31:10.292Z,0.9
2022-07-25T10:33:13.129Z,0.6
2022-07-25T10:35:16.086Z,0.9
2022-07-25T10:37:19.003Z,1.1
2022-07-25T10:39:21.931Z,0.8
2022-07-25T10:41:24.826Z,0.7
2022-07-25T10:43:27.778Z,0.8
2022-07-25T10:45:38.070Z,1.5
2022-07-25T10:47:36.712Z,0.6
2022-07-25T10:49:50.158Z,0.7
2022-07-25T10:51:42.642Z,1
2022-07-25T10:53:45.504Z,0.9
2022-07-25T10:56:04.837Z,1.6
2022-07-25T10:58:15.530Z,1.3
2022-07-25T10:59:57.345Z,0.9
2022-07-25T11:02:00.259Z,0.9
2022-07-25T11:04:03.199Z,1.1
2022-07-25T11:06:06.358Z,0.8
2022-07-25T11:08:21.607Z,1
2022-07-25T11:10:12.039Z,1
2022-07-25T11:12:14.952Z,1
2022-07-25T11:14:20.956Z,1.4
2022-07-25T11:16:23.906Z,1.3
2022-07-25T11:18:26.789Z,1.2
2022-07-25T11:19:29.823Z,2
2022-07-25T11:21:32.697Z,1.6
2022-07-25T11:23:35.624Z,1.5
2022-07-25T11:25:38.557Z,1.7
2022-07-25T11:29:47.518Z,2.3
2022-07-25T11:31:50.547Z,1.4
2022-07-25T11:33:53.402Z,1.3
2022-07-25T11:35:56.350Z,1.4
2022-07-25T11:37:59.200Z,1.9
2022-07-25T11:40:02.136Z,1.8
2022-07-25T11:42:08.110Z,1.7
2022-07-25T11:44:11.042Z,1.3
2022-07-25T11:46:14.085Z,1.2
2022-07-25T11:48:16.901Z,2.1
2022-07-25T11:52:22.778Z,1.6
2022-07-25T12:00:37.624Z,1.9
2022-07-25T12:08:49.458Z,1.4
2022-07-25T12:10:55.485Z,1.3
2022-07-25T12:16:04.601Z,1
2022-07-25T12:18:07.394Z,1.1
2022-07-25T12:20:11.078Z,1
2022-07-25T12:22:13.385Z,1
2022-07-25T12:24:19.399Z,0.8
2022-07-25T12:26:22.337Z,1.7
2022-07-25T12:28:25.311Z,1.7
2022-07-25T12:30:28.325Z,1.1
2022-07-25T12:32:31.230Z,1.5
2022-07-25T12:34:34.197Z,0.9
2022-07-25T12:36:37.172Z,1.5
2022-07-25T12:40:46.083Z,1.3
2022-07-25T12:42:49.043Z,1.5
2022-07-25T12:44:51.956Z,1.2
2022-07-25T12:46:54.891Z,1.9
2022-07-25T12:48:57.841Z,1.8
2022-07-25T12:51:00.752Z,1.9
2022-07-25T12:53:06.721Z,1.8
2022-07-25T12:55:09.639Z,1.8
2022-07-25T12:57:12.637Z,1.1
2022-07-25T12:59:15.476Z,1.2
2022-07-25T13:03:21.368Z,1.5
2022-07-25T13:05:24.314Z,1.6
2022-07-25T13:07:30.369Z,2
2022-07-25T13:09:33.296Z,1.5
2022-07-25T13:11:36.286Z,2.4
2022-07-25T13:16:45.412Z,1.8
2022-07-25T13:29:06.856Z,1.9
2022-07-25T13:31:09.656Z,1.4
2022-07-25T13:39:26.517Z,1.7
2022-07-25T13:45:35.777Z,2.6
2022-07-25T13:47:38.789Z,1.9
2022-07-25T13:49:44.898Z,2.3
2022-07-25T13:51:47.924Z,2.4
2022-07-25T13:53:50.901Z,1.6
2022-07-25T13:59:59.813Z,2.6
2022-07-25T14:10:32.036Z,1.3
2022-07-25T14:12:34.942Z,1.7
2022-07-25T14:14:37.860Z,1.3
2022-07-25T14:16:43.984Z,1.5
2022-07-25T14:18:46.783Z,1.3
2022-07-25T14:22:52.568Z,1.3
2022-07-25T14:24:55.441Z,1.2
2022-07-25T14:26:58.320Z,1.7
2022-07-25T14:29:01.227Z,1.3
2022-07-25T14:31:07.294Z,1.9
2022-07-25T14:37:15.764Z,1.2
2022-07-25T14:39:18.655Z,1.4
2022-07-25T14:41:21.504Z,1.6
2022-07-25T14:43:24.353Z,1.7
2022-07-25T14:45:30.282Z,1.1
2022-07-25T14:47:33.192Z,1.5
2022-07-25T14:49:36.029Z,1.4
2022-07-25T14:51:38.896Z,1.7
2022-07-25T14:57:47.551Z,1.2
2022-07-25T15:03:59.353Z,1.7
2022-07-25T15:05:02.391Z,1.4
2022-07-25T15:07:05.258Z,1.9
2022-07-25T15:09:08.451Z,1.3
2022-07-25T15:11:11.079Z,2
2022-07-25T15:13:31.052Z,1.4
2022-07-25T15:17:22.939Z,1.3
2022-07-25T15:19:26.293Z,1.1
2022-07-25T15:21:28.810Z,2.1
2022-07-25T15:23:31.810Z,1.3
2022-07-25T15:26:00.765Z,0.7
2022-07-25T15:29:43.666Z,1.2
2022-07-25T15:31:46.733Z,1.4
2022-07-25T15:33:49.601Z,1.7
2022-07-25T15:37:55.528Z,0.9
2022-07-25T15:39:58.496Z,0.6
2022-07-25T15:42:04.556Z,0.9
2022-07-25T15:56:28.509Z,0.8
2022-07-25T16:01:37.630Z,0.6
2022-07-25T16:03:40.714Z,0.5
2022-07-25T16:05:43.587Z,1
2022-07-25T16:07:46.574Z,0.6
2022-07-25T16:09:52.626Z,0.3
2022-07-25T16:11:55.658Z,0.6
2022-07-25T16:13:58.652Z,0.4
2022-07-25T16:20:07.659Z,0.6
2022-07-25T16:22:10.703Z,0.8
2022-07-25T16:24:16.749Z,0.8
2022-07-25T16:26:19.844Z,0.5
2022-07-25T16:28:22.803Z,1
2022-07-25T16:30:25.808Z,0.7
2022-07-25T16:32:28.791Z,0.6
2022-07-25T16:34:31.818Z,1
2022-07-25T16:36:34.842Z,0.7
2022-07-25T16:38:40.890Z,0.7
2022-07-25T16:40:43.919Z,0.7
2022-07-25T16:42:46.946Z,1
2022-07-25T16:44:49.955Z,0.6
2022-07-25T16:46:53.098Z,0.4
2022-07-25T16:48:56.094Z,0.7
2022-07-25T16:50:59.172Z,0.5
2022-07-25T16:53:05.080Z,0.5
2022-07-25T16:55:08.112Z,0.8
2022-07-25T16:57:11.128Z,0.7
2022-07-25T17:00:17.167Z,0.7
2022-07-25T17:02:20.285Z,0.5
2022-07-25T17:06:29.302Z,1
2022-07-25T17:10:35.336Z,1.1
2022-07-25T17:18:47.449Z,0.6
2022-07-25T17:20:53.524Z,0.8
2022-07-25T17:22:56.593Z,0.3
2022-07-25T17:24:59.644Z,0.6
2022-07-25T17:27:02.659Z,0.5
2022-07-25T17:29:06.040Z,0.5
2022-07-25T17:31:08.796Z,0.5
2022-07-25T17:35:17.820Z,0.5
2022-07-25T17:41:26.869Z,0.9
2022-07-25T17:43:29.842Z,0.6
2022-07-25T17:45:32.846Z,0.6
2022-07-25T17:47:35.814Z,0.6
2022-07-25T17:49:41.914Z,0.8
2022-07-25T17:51:44.841Z,1.2
2022-07-25T17:53:47.812Z,0.7
2022-07-25T17:56:05.251Z,0.9
2022-07-25T17:58:08.217Z,0.9
2022-07-25T18:00:11.196Z,0.9
2022-07-25T18:02:17.223Z,0.8
2022-07-25T18:04:20.225Z,0.8
2022-07-25T18:08:26.205Z,1.4
2022-07-25T18:14:35.253Z,1
2022-07-25T18:20:47.425Z,0.9
2022-07-25T18:24:53.554Z,1
2022-07-25T18:26:56.637Z,1.2
2022-07-25T18:28:59.700Z,1.3
2022-07-25T18:37:15.086Z,0.6
2022-07-25T18:39:18.198Z,1.8
2022-07-25T18:41:29.692Z,1.1
2022-07-25T18:43:24.353Z,1.4
2022-07-25T18:49:36.796Z,1.3
2022-07-25T18:50:39.888Z,0.9
2022-07-25T18:52:43.004Z,0.7
2022-07-25T18:54:46.132Z,1.2
2022-07-25T18:56:49.266Z,1.2
2022-07-25T18:58:55.454Z,1.1
2022-07-25T19:00:58.595Z,0.9
2022-07-25T19:03:01.735Z,1.3
2022-07-25T19:05:05.052Z,0.8
2022-07-25T19:07:08.045Z,1
2022-07-25T19:09:11.226Z,0.9
2022-07-25T19:11:14.385Z,1.4
2022-07-25T19:13:46.662Z,1.3
2022-07-25T19:17:26.909Z,1.9
2022-07-25T19:19:30.098Z,1.4
2022-07-25T19:21:33.257Z,1
2022-07-25T19:23:36.429Z,0.7
2022-07-25T19:25:39.647Z,1.8
2022-07-25T19:27:47.396Z,1
2022-07-25T19:29:50.542Z,0.9
2022-07-25T19:33:56.925Z,0.7
2022-07-25T19:36:00.112Z,1.3
2022-07-25T19:40:06.616Z,1.1
2022-07-25T19:42:12.846Z,0.7
2022-07-25T19:44:16.046Z,0.4
2022-07-25T19:46:19.261Z,1.3
2022-07-25T19:47:22.363Z,1.2
2022-07-25T19:49:25.544Z,0.7
2022-07-25T19:51:28.765Z,1
2022-07-25T19:53:31.998Z,1.1
2022-07-25T19:55:38.257Z,1.2
2022-07-25T19:57:41.429Z,0.6
2022-07-25T19:59:44.647Z,0.8
2022-07-25T20:01:47.893Z,0.8
2022-07-25T20:03:51.057Z,0.8
2022-07-25T20:05:54.247Z,0.7
2022-07-25T20:07:57.444Z,0.6
2022-07-25T20:10:03.683Z,0.9
2022-07-25T20:12:06.974Z,0.7
2022-07-25T20:14:10.660Z,0.9
2022-07-25T20:16:13.351Z,0.6
2022-07-25T20:18:19.577Z,0.6
2022-07-25T20:20:19.690Z,0.6
2022-07-25T20:22:22.920Z,0.6
2022-07-25T20:24:29.200Z,0.5
2022-07-25T20:26:32.380Z,0.5
2022-07-25T20:28:35.589Z,0.8
2022-07-25T20:30:38.825Z,1.1
2022-07-25T20:32:41.940Z,0.9
2022-07-25T20:34:45.105Z,0.6
2022-07-25T20:36:48.280Z,1.6
2022-07-25T20:38:54.489Z,1.2
2022-07-25T20:40:57.680Z,1.1
2022-07-25T20:43:00.822Z,1
2022-07-25T20:48:10.320Z,0.9
2022-07-25T20:52:19.788Z,1.5
2022-07-25T20:54:22.987Z,1.3
2022-07-25T20:58:29.337Z,1.2
2022-07-25T21:00:32.510Z,1.6
2022-07-25T21:04:38.888Z,0.9
2022-07-25T21:08:48.280Z,1.5
2022-07-25T21:10:51.461Z,2
2022-07-25T21:14:57.855Z,1.1
2022-07-25T21:17:01.092Z,1.4
2022-07-25T21:19:04.439Z,1.2
2022-07-25T21:21:12.245Z,1.6
2022-07-25T21:23:13.700Z,2.1
2022-07-25T21:25:16.890Z,1.2
2022-07-25T21:27:20.185Z,1.9
2022-07-25T21:29:23.529Z,1.2
2022-07-25T21:33:29.992Z,1.2
2022-07-25T21:35:51.178Z,1.5
2022-07-25T21:37:39.448Z,1.8
2022-07-25T21:39:42.780Z,1.3
2022-07-25T21:42:12.361Z,1.8
2022-07-25T21:46:18.983Z,1.3
2022-07-25T21:50:28.455Z,1.6
2022-07-25T21:52:34.946Z,1.3
2022-07-25T21:56:41.452Z,1.1
2022-07-25T21:58:41.440Z,2.3
2022-07-25T22:00:45.729Z,1.6
2022-07-25T22:02:50.879Z,1.2
2022-07-25T22:09:00.682Z,1.5
2022-07-25T22:11:15.828Z,1.5
2022-07-25T22:15:12.120Z,1.1
2022-07-25T22:19:22.521Z,1.1
2022-07-25T22:21:24.202Z,1.5
2022-07-25T22:27:34.223Z,1.2
2022-07-25T22:29:37.555Z,2
2022-07-25T22:31:44.102Z,1.4
2022-07-25T22:35:50.786Z,1.6
2022-07-25T22:36:54.072Z,1.5
2022-07-25T22:38:57.448Z,1.4
2022-07-25T22:41:00.826Z,1.5
2022-07-25T22:43:04.211Z,1.6
2022-07-25T22:45:10.749Z,2
2022-07-25T22:47:13.982Z,1.8
2022-07-25T22:49:17.482Z,1.8
2022-07-25T22:51:20.806Z,1.4
2022-07-25T22:53:24.169Z,1.7
2022-07-25T22:57:36.812Z,1.6
2022-07-25T23:09:54.248Z,1.8
2022-07-25T23:14:04.119Z,2.1
2022-07-25T23:16:10.233Z,1.8
2022-07-25T23:18:10.907Z,2
2022-07-25T23:20:14.269Z,2.1
2022-07-25T23:22:17.652Z,3.7
2022-07-25T23:24:21.059Z,1.8
2022-07-25T23:26:24.444Z,2.6
2022-07-25T23:28:30.959Z,1.9
2022-07-25T23:30:39.906Z,2.8
2022-07-25T23:32:37.691Z,2.2
2022-07-25T23:33:40.962Z,3.4
2022-07-25T23:37:47.693Z,2.4
2022-07-25T23:39:51.061Z,2.1
2022-07-25T23:44:00.981Z,2.1
2022-07-25T23:48:07.763Z,2.2
2022-07-25T23:50:11.217Z,1.5
2022-07-25T23:52:14.522Z,2.4
2022-07-25T23:54:17.783Z,3
2022-07-25T23:56:24.335Z,1.9
2022-07-25T23:58:27.683Z,2.8
